Time;durP1;ratioP1;P1;durP2;ratioP2;P2;SDS_P1;SDS_P2;PMS_P1;PMS_P2;Temp;Humidity;BMP_temperature;BMP_pressure;BME280_temperature;BME280_humidity;BME280_pressure;Samples;Min_cycle;Max_cycle;Signal;HPM_P1;HPM_P2
2021/07/14 00:01:47;;;;;;;2.00;0.85;;;24.00;56.80;;;;;;5066780;28;20090;-52
2021/07/14 00:04:12;;;;;;;0.70;0.70;;;24.00;56.80;;;;;;5054623;28;20033;-54
2021/07/14 00:06:38;;;;;;;1.05;0.73;;;24.00;56.70;;;;;;5068762;28;20028;-48
2021/07/14 00:09:08;;;;;;;0.73;0.70;;;24.00;56.70;;;;;;5065660;28;20037;-49
2021/07/14 00:11:40;;;;;;;1.05;0.98;;;24.00;56.70;;;;;;5052736;28;20036;-54
2021/07/14 00:22:13;;;;;;;2.35;0.90;;;24.00;56.60;;;;;;5070865;28;20039;-54
2021/07/14 00:24:40;;;;;;;1.23;0.90;;;24.00;56.60;;;;;;5061513;28;20037;-51
2021/07/14 00:27:08;;;;;;;1.35;0.80;;;24.00;56.50;;;;;;5059298;28;20040;-51
2021/07/14 00:29:36;;;;;;;2.75;1.45;;;24.00;56.60;;;;;;5064128;28;20076;-51
2021/07/14 00:32:04;;;;;;;2.45;0.88;;;24.00;56.40;;;;;;5066227;28;20067;-49
2021/07/14 00:34:30;;;;;;;2.95;0.80;;;24.00;56.60;;;;;;5062099;28;20047;-51
2021/07/14 00:36:56;;;;;;;1.08;0.73;;;24.00;56.50;;;;;;5061987;28;20029;-51
2021/07/14 00:39:21;;;;;;;1.98;0.90;;;24.00;56.40;;;;;;5038102;28;20036;-49
2021/07/14 00:41:47;;;;;;;1.33;1.10;;;24.00;56.50;;;;;;5068763;28;20068;-48
2021/07/14 00:44:13;;;;;;;2.90;1.00;;;23.90;56.40;;;;;;5057575;28;20066;-56
2021/07/14 00:46:40;;;;;;;3.08;1.10;;;23.90;56.40;;;;;;5065086;28;20071;-51
2021/07/14 00:49:06;;;;;;;3.28;0.98;;;23.90;56.30;;;;;;5061112;28;20028;-51
2021/07/14 00:51:32;;;;;;;1.48;0.95;;;23.90;56.30;;;;;;5059336;28;20198;-50
2021/07/14 00:53:59;;;;;;;1.33;0.70;;;24.00;56.30;;;;;;5063907;28;20044;-51
2021/07/14 00:56:26;;;;;;;1.45;0.90;;;23.90;56.30;;;;;;5066464;28;20029;-55
2021/07/14 00:58:54;;;;;;;1.67;0.93;;;23.90;56.20;;;;;;5056382;28;20048;-50
2021/07/14 01:01:21;;;;;;;1.10;0.90;;;23.90;56.20;;;;;;5066016;28;20048;-51
2021/07/14 01:04:09;;;;;;;1.15;0.90;;;23.90;56.20;;;;;;5061744;28;20055;-54
2021/07/14 01:07:06;;;;;;;1.05;0.95;;;23.90;56.10;;;;;;5052555;28;20040;-52
2021/07/14 01:09:41;;;;;;;1.15;0.80;;;23.90;56.10;;;;;;5069596;28;20020;-53
2021/07/14 01:12:20;;;;;;;2.40;1.02;;;23.90;56.20;;;;;;5066845;28;20040;-51
2021/07/14 01:15:08;;;;;;;1.10;0.90;;;23.90;56.10;;;;;;5059758;28;20478;-51
2021/07/14 01:17:37;;;;;;;1.92;1.00;;;23.90;56.20;;;;;;5053179;28;20029;-50
2021/07/14 01:20:41;;;;;;;2.22;0.95;;;23.90;56.10;;;;;;5065816;28;20363;-53
2021/07/14 01:23:16;;;;;;;1.15;0.80;;;23.90;56.00;;;;;;5054353;28;20434;-55
2021/07/14 01:25:56;;;;;;;4.75;1.05;;;24.00;56.10;;;;;;5070144;28;20420;-55
2021/07/14 01:28:26;;;;;;;1.17;0.80;;;24.00;56.10;;;;;;5065800;28;20462;-53
2021/07/14 01:30:53;;;;;;;1.52;1.00;;;23.90;56.00;;;;;;5061595;28;20040;-51
2021/07/14 01:33:24;;;;;;;1.85;0.80;;;24.00;56.10;;;;;;5061970;28;20036;-52
2021/07/14 01:35:52;;;;;;;1.20;1.00;;;24.00;56.10;;;;;;5054729;28;20022;-56
2021/07/14 01:38:24;;;;;;;2.25;0.95;;;24.00;56.00;;;;;;5060726;28;20016;-53
2021/07/14 01:40:53;;;;;;;2.15;1.08;;;24.00;56.00;;;;;;5059776;28;20141;-54
2021/07/14 01:43:19;;;;;;;1.55;0.80;;;24.00;56.00;;;;;;5062589;28;20033;-51
2021/07/14 01:45:47;;;;;;;1.38;0.80;;;24.00;56.00;;;;;;5058359;28;20040;-52
2021/07/14 01:48:15;;;;;;;3.10;1.10;;;24.00;56.10;;;;;;5064862;28;20032;-57
2021/07/14 01:50:42;;;;;;;1.25;0.90;;;24.00;56.10;;;;;;5066904;28;20024;-51
2021/07/14 01:53:08;;;;;;;0.68;0.60;;;24.00;56.10;;;;;;5053657;28;20041;-51
2021/07/14 01:55:40;;;;;;;2.08;1.55;;;24.00;56.00;;;;;;5064476;28;20021;-54
2021/07/14 01:58:07;;;;;;;1.40;1.10;;;24.00;56.00;;;;;;5064168;28;20041;-52
2021/07/14 02:00:34;;;;;;;1.00;0.80;;;24.00;56.10;;;;;;5043450;28;20070;-53
2021/07/14 02:05:28;;;;;;;1.63;0.95;;;24.00;56.20;;;;;;5068736;28;20385;-56
2021/07/14 02:07:53;;;;;;;1.42;0.77;;;24.10;56.30;;;;;;5071296;28;20028;-54
2021/07/14 02:10:19;;;;;;;0.93;0.85;;;24.10;56.20;;;;;;5068652;28;20039;-55
2021/07/14 02:12:47;;;;;;;0.73;0.63;;;24.10;56.20;;;;;;5073306;28;20043;-54
2021/07/14 02:15:13;;;;;;;1.65;0.77;;;24.00;56.10;;;;;;5072819;28;20519;-56
2021/07/14 02:17:47;;;;;;;1.13;1.02;;;24.10;56.00;;;;;;5071171;28;20020;-54
2021/07/14 02:20:16;;;;;;;1.02;0.80;;;24.00;56.10;;;;;;5067551;28;20833;-56
2021/07/14 02:22:42;;;;;;;1.38;0.82;;;24.10;56.20;;;;;;5070962;28;20028;-54
2021/07/14 02:25:09;;;;;;;0.95;0.82;;;24.10;56.20;;;;;;5069942;28;20114;-55
2021/07/14 02:27:35;;;;;;;1.67;0.93;;;24.10;56.20;;;;;;5071165;28;20051;-54
2021/07/14 02:30:04;;;;;;;0.80;0.70;;;24.00;56.20;;;;;;5067731;28;20029;-50
2021/07/14 02:32:29;;;;;;;0.80;0.60;;;24.00;56.10;;;;;;5069530;28;20032;-54
2021/07/14 02:34:56;;;;;;;6.20;0.85;;;24.10;56.20;;;;;;5070960;28;20048;-53
2021/07/14 02:37:37;;;;;;;2.92;1.20;;;24.10;56.20;;;;;;5070045;28;20049;-55
2021/07/14 02:40:06;;;;;;;2.90;0.97;;;24.00;56.10;;;;;;5069152;28;20034;-56
2021/07/14 02:42:33;;;;;;;3.50;0.80;;;24.00;56.20;;;;;;5070629;28;20511;-54
2021/07/14 02:45:02;;;;;;;1.48;0.90;;;24.00;56.20;;;;;;5066631;28;20104;-55
2021/07/14 02:47:35;;;;;;;1.30;0.90;;;24.00;56.20;;;;;;5065928;28;20366;-55
2021/07/14 02:50:06;;;;;;;1.48;0.60;;;24.00;56.20;;;;;;5073303;28;20070;-51
2021/07/14 02:52:35;;;;;;;1.60;0.70;;;24.00;56.20;;;;;;5056793;28;20776;-54
2021/07/14 02:55:02;;;;;;;1.05;0.82;;;24.00;56.20;;;;;;5068285;28;20037;-53
2021/07/14 02:57:29;;;;;;;3.40;1.48;;;24.00;56.80;;;;;;5061639;28;20025;-52
2021/07/14 02:59:55;;;;;;;1.85;0.88;;;24.00;56.20;;;;;;5067265;28;20041;-53
2021/07/14 03:02:23;;;;;;;2.25;0.98;;;24.00;56.20;;;;;;5062796;28;20025;-52
2021/07/14 03:04:51;;;;;;;1.35;1.10;;;24.10;56.20;;;;;;5064600;28;20031;-50
2021/07/14 03:07:21;;;;;;;2.50;0.90;;;24.00;56.20;;;;;;5065274;28;20031;-54
2021/07/14 03:09:47;;;;;;;0.65;0.65;;;24.00;56.20;;;;;;5069752;28;20398;-55
2021/07/14 03:12:16;;;;;;;1.33;0.98;;;24.00;56.20;;;;;;5058043;28;20041;-56
2021/07/14 03:14:48;;;;;;;0.75;0.70;;;24.00;56.20;;;;;;5071265;28;20044;-54
2021/07/14 03:17:16;;;;;;;3.80;0.80;;;24.00;56.20;;;;;;5062533;28;20025;-57
2021/07/14 03:19:43;;;;;;;5.65;1.17;;;24.00;56.10;;;;;;5064821;28;20506;-50
2021/07/14 03:22:09;;;;;;;3.20;0.90;;;24.00;56.00;;;;;;5073665;28;20033;-55
2021/07/14 03:24:36;;;;;;;1.65;0.75;;;24.10;56.00;;;;;;5060947;28;20159;-52
2021/07/14 03:27:04;;;;;;;1.10;1.00;;;24.00;56.00;;;;;;5073359;28;20040;-51
2021/07/14 03:29:32;;;;;;;2.17;0.90;;;24.00;56.10;;;;;;5063227;28;20034;-49
2021/07/14 03:32:00;;;;;;;1.20;0.90;;;24.00;56.20;;;;;;5070310;28;20063;-53
2021/07/14 03:34:25;;;;;;;0.80;0.73;;;24.00;56.20;;;;;;5058658;28;20116;-51
2021/07/14 03:36:51;;;;;;;0.95;0.60;;;24.00;56.20;;;;;;5054583;28;20170;-52
2021/07/14 03:39:17;;;;;;;2.72;1.00;;;24.00;56.20;;;;;;5058152;28;20527;-57
2021/07/14 03:41:44;;;;;;;2.08;0.90;;;24.00;56.20;;;;;;5068777;28;20029;-53
2021/07/14 03:44:13;;;;;;;1.35;0.88;;;24.00;56.20;;;;;;5059261;28;20466;-52
2021/07/14 03:46:39;;;;;;;1.20;0.80;;;24.00;56.10;;;;;;5061671;28;20465;-54
2021/07/14 03:49:05;;;;;;;1.58;0.85;;;24.00;56.20;;;;;;5070956;28;20040;-56
2021/07/14 03:51:32;;;;;;;1.70;0.98;;;24.00;56.30;;;;;;5057134;28;20086;-56
2021/07/14 03:53:59;;;;;;;2.58;0.90;;;24.00;56.30;;;;;;5063646;28;20067;-54
2021/07/14 03:56:26;;;;;;;1.08;0.80;;;24.00;56.30;;;;;;5052511;28;20117;-51
2021/07/14 03:58:56;;;;;;;0.80;0.80;;;24.00;56.30;;;;;;5058827;28;20143;-51
2021/07/14 04:01:22;;;;;;;1.10;0.80;;;24.00;56.30;;;;;;5053526;28;20099;-55
2021/07/14 04:03:50;;;;;;;1.35;1.00;;;24.00;56.40;;;;;;5066826;28;20035;-54
2021/07/14 04:06:17;;;;;;;2.83;1.00;;;24.00;56.20;;;;;;5059609;28;20024;-57
2021/07/14 04:09:07;;;;;;;2.85;0.82;;;24.00;56.40;;;;;;5058170;28;20036;-55
2021/07/14 04:11:33;;;;;;;2.28;1.08;;;24.00;56.30;;;;;;5057005;28;20024;-55
2021/07/14 04:13:59;;;;;;;2.03;1.08;;;24.00;56.20;;;;;;5066116;28;20040;-50
2021/07/14 04:16:25;;;;;;;1.30;0.80;;;24.00;56.20;;;;;;5048878;28;20466;-54
2021/07/14 04:18:50;;;;;;;1.90;0.63;;;24.00;56.20;;;;;;5059253;28;20028;-47
2021/07/14 04:21:16;;;;;;;1.58;0.88;;;24.00;56.20;;;;;;5071427;28;20047;-54
2021/07/14 04:23:42;;;;;;;2.50;1.13;;;24.00;56.10;;;;;;5065781;28;20035;-51
2021/07/14 04:26:07;;;;;;;1.65;0.90;;;24.00;56.00;;;;;;5062465;28;21531;-50
2021/07/14 04:28:33;;;;;;;1.95;1.17;;;24.00;55.90;;;;;;5063481;28;20060;-50
2021/07/14 04:30:59;;;;;;;3.88;1.00;;;24.00;56.20;;;;;;5060375;28;20055;-48
2021/07/14 04:33:25;;;;;;;2.83;1.02;;;24.00;56.20;;;;;;5063052;28;20025;-51
2021/07/14 04:35:50;;;;;;;2.28;0.80;;;24.00;56.20;;;;;;5056181;28;20029;-54
2021/07/14 04:38:16;;;;;;;1.20;0.88;;;24.00;56.20;;;;;;5065962;28;20032;-57
2021/07/14 04:40:43;;;;;;;1.02;0.70;;;24.00;56.20;;;;;;5065447;28;20111;-51
2021/07/14 04:43:10;;;;;;;1.15;0.90;;;24.00;56.10;;;;;;5057117;28;20386;-55
2021/07/14 04:45:37;;;;;;;3.28;1.02;;;24.00;56.00;;;;;;5065126;28;20061;-51
2021/07/14 04:48:03;;;;;;;1.00;0.82;;;24.00;56.10;;;;;;5059523;28;20470;-52
2021/07/14 04:50:29;;;;;;;1.83;1.23;;;24.00;55.90;;;;;;5058422;28;20029;-52
2021/07/14 04:52:55;;;;;;;1.17;0.90;;;24.00;55.80;;;;;;5058603;28;20087;-50
2021/07/14 04:55:21;;;;;;;0.90;0.80;;;24.00;56.10;;;;;;5063755;28;20440;-52
2021/07/14 04:57:47;;;;;;;1.40;0.82;;;24.00;56.20;;;;;;5066314;28;20040;-54
2021/07/14 05:00:16;;;;;;;1.85;0.65;;;24.00;56.20;;;;;;5066542;28;20049;-50
2021/07/14 05:02:45;;;;;;;1.25;1.02;;;24.00;56.10;;;;;;5059836;28;20474;-49
2021/07/14 05:05:15;;;;;;;3.03;1.08;;;24.00;56.10;;;;;;5058506;28;20466;-52
2021/07/14 05:07:41;;;;;;;1.40;0.82;;;24.00;56.10;;;;;;5062033;28;20039;-51
2021/07/14 05:10:08;;;;;;;1.20;0.90;;;24.00;56.10;;;;;;5049175;28;20029;-50
2021/07/14 05:12:34;;;;;;;1.25;0.90;;;23.90;56.00;;;;;;5053518;28;20039;-53
2021/07/14 05:15:00;;;;;;;3.00;1.10;;;23.90;56.00;;;;;;5068559;28;20036;-53
2021/07/14 05:17:25;;;;;;;1.85;0.90;;;24.00;55.90;;;;;;5063318;28;20056;-51
2021/07/14 05:19:53;;;;;;;3.30;1.00;;;24.00;56.10;;;;;;5063938;28;20099;-53
2021/07/14 05:22:20;;;;;;;2.63;1.00;;;24.00;56.20;;;;;;5063530;28;20029;-56
2021/07/14 05:24:45;;;;;;;2.83;1.27;;;24.10;56.40;;;;;;5061913;28;20090;-55
2021/07/14 05:27:11;;;;;;;1.20;0.90;;;24.10;56.50;;;;;;5033416;28;20052;-54
2021/07/14 05:29:37;;;;;;;4.82;1.60;;;24.10;56.40;;;;;;5060727;28;20485;-55
2021/07/14 05:32:04;;;;;;;3.53;1.10;;;24.10;56.70;;;;;;5064626;28;20115;-53
2021/07/14 05:34:29;;;;;;;3.50;0.90;;;24.20;56.70;;;;;;5066949;28;20032;-55
2021/07/14 05:36:55;;;;;;;5.13;1.02;;;24.10;56.90;;;;;;5054116;28;20040;-55
2021/07/14 05:39:21;;;;;;;1.63;1.20;;;24.10;57.00;;;;;;5066749;28;20063;-57
2021/07/14 05:41:46;;;;;;;1.17;0.80;;;24.20;57.40;;;;;;5060341;28;20033;-55
2021/07/14 05:44:12;;;;;;;2.85;1.45;;;24.10;57.70;;;;;;5065011;28;20032;-55
2021/07/14 05:46:37;;;;;;;3.72;1.70;;;24.20;57.80;;;;;;5060545;28;20036;-50
2021/07/14 05:49:04;;;;;;;2.50;1.25;;;24.20;58.00;;;;;;5054372;28;20037;-53
2021/07/14 05:51:33;;;;;;;3.75;1.20;;;24.20;58.10;;;;;;5062622;28;20479;-54
2021/07/14 05:53:59;;;;;;;7.53;1.42;;;24.20;58.00;;;;;;5051094;28;20116;-56
2021/07/14 05:56:25;;;;;;;2.03;1.13;;;24.20;57.90;;;;;;5062929;28;20052;-54
2021/07/14 05:58:51;;;;;;;4.15;1.40;;;24.20;58.10;;;;;;5057363;28;20055;-56
2021/07/14 06:01:17;;;;;;;7.05;1.25;;;24.20;58.00;;;;;;5059459;28;20048;-49
2021/07/14 06:03:43;;;;;;;4.38;1.10;;;24.10;58.30;;;;;;5057172;28;20041;-56
2021/07/14 06:06:09;;;;;;;5.07;1.50;;;24.20;58.00;;;;;;5051326;28;20036;-52
2021/07/14 06:08:34;;;;;;;2.88;1.17;;;24.30;58.10;;;;;;5063717;28;20021;-50
2021/07/14 06:11:00;;;;;;;3.95;1.35;;;24.30;58.40;;;;;;5059693;28;20033;-49
2021/07/14 06:13:26;;;;;;;10.52;1.30;;;24.30;58.30;;;;;;5057406;28;20033;-51
2021/07/14 06:15:51;;;;;;;3.15;1.40;;;24.30;58.40;;;;;;5054758;28;20047;-57
2021/07/14 06:18:17;;;;;;;8.05;1.50;;;24.30;58.30;;;;;;5052992;28;20025;-53
2021/07/14 06:20:43;;;;;;;3.60;1.20;;;24.30;58.40;;;;;;5066315;28;20099;-54
2021/07/14 06:23:09;;;;;;;3.13;1.33;;;24.20;57.90;;;;;;5062665;28;20032;-49
2021/07/14 06:25:35;;;;;;;3.95;1.25;;;24.20;57.50;;;;;;5052124;28;20534;-54
2021/07/14 06:28:02;;;;;;;6.60;1.38;;;24.20;57.40;;;;;;5050999;28;20064;-50
2021/07/14 06:30:28;;;;;;;4.40;1.27;;;24.20;57.40;;;;;;5050628;28;20060;-48
2021/07/14 06:32:54;;;;;;;7.40;1.65;;;24.20;57.30;;;;;;5058513;28;20435;-51
2021/07/14 06:35:21;;;;;;;4.10;1.80;;;24.20;57.30;;;;;;5065869;28;20082;-56
2021/07/14 06:37:48;;;;;;;3.90;1.40;;;24.20;57.20;;;;;;5069471;28;20107;-53
2021/07/14 06:40:14;;;;;;;2.10;1.10;;;24.20;57.40;;;;;;5055715;28;20029;-51
2021/07/14 06:42:40;;;;;;;5.97;1.25;;;24.20;57.20;;;;;;5057528;28;20583;-49
2021/07/14 06:45:07;;;;;;;5.63;1.65;;;24.20;57.20;;;;;;5061267;28;20099;-51
2021/07/14 06:47:34;;;;;;;13.00;1.80;;;24.20;57.20;;;;;;5060688;28;20033;-55
2021/07/14 06:49:59;;;;;;;3.65;1.40;;;24.20;57.20;;;;;;5067227;28;20512;-52
2021/07/14 06:52:25;;;;;;;5.68;1.60;;;24.20;57.40;;;;;;5065800;28;20068;-55
2021/07/14 06:54:51;;;;;;;3.33;1.73;;;24.10;56.20;;;;;;5066084;28;20166;-55
2021/07/14 06:57:16;;;;;;;3.30;1.50;;;23.20;55.10;;;;;;5068316;28;20044;-55
2021/07/14 06:59:42;;;;;;;2.22;1.45;;;22.40;56.80;;;;;;5061615;28;20049;-55
2021/07/14 07:02:07;;;;;;;4.28;1.40;;;22.10;58.10;;;;;;5053657;28;20044;-56
2021/07/14 07:04:33;;;;;;;2.92;1.35;;;21.90;58.60;;;;;;5059373;28;20041;-55
2021/07/14 07:07:00;;;;;;;1.73;1.20;;;21.80;59.10;;;;;;5070704;28;20444;-56
2021/07/14 07:09:26;;;;;;;1.75;1.33;;;21.80;59.90;;;;;;5067972;28;20033;-54
2021/07/14 07:11:52;;;;;;;2.75;1.42;;;21.80;58.60;;;;;;5062491;28;20485;-57
2021/07/14 07:14:18;;;;;;;4.43;1.30;;;21.50;59.00;;;;;;5073243;28;20039;-56
2021/07/14 07:16:44;;;;;;;3.33;1.23;;;21.50;59.30;;;;;;5056489;28;20252;-56
2021/07/14 07:19:10;;;;;;;2.75;1.50;;;21.50;59.70;;;;;;5066456;28;20029;-54
2021/07/14 07:21:36;;;;;;;3.75;1.33;;;21.60;59.50;;;;;;5065124;28;20040;-55
2021/07/14 07:24:03;;;;;;;4.63;1.40;;;21.70;59.00;;;;;;5062898;28;20500;-55
2021/07/14 07:26:28;;;;;;;4.15;1.17;;;21.60;59.40;;;;;;5059206;28;20055;-56
2021/07/14 07:28:59;;;;;;;3.67;1.77;;;21.50;59.60;;;;;;5065096;28;20021;-55
2021/07/14 07:31:25;;;;;;;4.00;1.50;;;21.50;59.20;;;;;;5071206;28;20048;-57
2021/07/14 07:33:51;;;;;;;3.88;1.30;;;21.50;59.30;;;;;;5055464;28;20154;-56
2021/07/14 07:36:18;;;;;;;2.88;1.25;;;21.50;59.50;;;;;;5063879;28;20051;-56
2021/07/14 07:38:43;;;;;;;11.88;2.65;;;21.40;60.40;;;;;;5035847;28;20506;-56
2021/07/14 07:41:10;;;;;;;3.58;1.20;;;21.30;60.70;;;;;;5058478;28;20037;-56
2021/07/14 07:43:36;;;;;;;1.75;1.20;;;21.50;60.30;;;;;;5052573;28;20389;-55
2021/07/14 07:46:03;;;;;;;4.18;1.13;;;21.70;59.80;;;;;;5068395;28;20024;-52
2021/07/14 07:48:28;;;;;;;3.03;1.10;;;21.70;59.80;;;;;;5058569;28;20021;-53
2021/07/14 07:50:55;;;;;;;2.75;1.17;;;21.70;60.00;;;;;;5063932;28;20028;-54
2021/07/14 07:53:21;;;;;;;2.05;1.20;;;21.60;60.30;;;;;;5063686;28;20091;-56
2021/07/14 07:55:48;;;;;;;4.57;1.35;;;21.50;60.80;;;;;;5068534;28;20052;-54
2021/07/14 07:58:15;;;;;;;5.05;1.38;;;21.40;61.00;;;;;;5062632;28;20087;-55
2021/07/14 08:00:41;;;;;;;2.25;1.30;;;21.40;61.40;;;;;;5057683;28;20049;-56
2021/07/14 08:03:06;;;;;;;2.08;1.27;;;21.50;61.20;;;;;;5062734;28;20035;-52
2021/07/14 08:05:32;;;;;;;3.53;1.50;;;21.50;60.70;;;;;;5061689;28;20108;-55
2021/07/14 08:07:58;;;;;;;5.35;1.60;;;21.40;61.40;;;;;;5071766;28;20024;-55
2021/07/14 08:10:24;;;;;;;2.78;1.60;;;21.30;62.40;;;;;;5066594;28;20033;-58
2021/07/14 08:12:51;;;;;;;2.72;1.10;;;21.40;62.40;;;;;;5053745;28;20033;-54
2021/07/14 08:15:17;;;;;;;4.55;1.05;;;21.90;60.60;;;;;;5070633;28;20466;-51
2021/07/14 08:17:43;;;;;;;4.43;1.15;;;22.40;60.10;;;;;;5059586;28;20078;-51
2021/07/14 08:20:11;;;;;;;4.32;1.30;;;22.70;58.60;;;;;;5067050;28;20052;-54
2021/07/14 08:22:37;;;;;;;3.58;1.27;;;23.00;58.20;;;;;;5071671;28;20557;-54
2021/07/14 08:25:04;;;;;;;4.45;1.30;;;23.10;57.90;;;;;;5063531;28;20029;-53
2021/07/14 08:27:30;;;;;;;2.17;0.80;;;23.20;57.80;;;;;;5068104;28;20037;-57
2021/07/14 08:29:59;;;;;;;1.02;0.70;;;23.30;57.60;;;;;;5068996;28;20074;-51
2021/07/14 08:32:29;;;;;;;3.33;1.38;;;23.30;57.60;;;;;;5063467;28;20074;-56
2021/07/14 08:34:55;;;;;;;3.65;1.42;;;23.40;57.60;;;;;;5067278;28;20025;-52
2021/07/14 08:37:22;;;;;;;1.92;1.20;;;23.40;57.50;;;;;;5058633;28;20112;-53
2021/07/14 08:39:50;;;;;;;3.00;1.20;;;23.40;57.50;;;;;;5065108;28;20043;-54
2021/07/14 08:42:17;;;;;;;3.92;1.40;;;23.40;57.60;;;;;;5057447;28;20040;-55
2021/07/14 08:44:44;;;;;;;2.30;1.08;;;23.40;57.60;;;;;;5067893;28;20149;-52
2021/07/14 08:47:10;;;;;;;3.90;1.20;;;23.40;57.60;;;;;;5055564;28;20060;-54
2021/07/14 08:49:41;;;;;;;1.50;1.00;;;23.40;57.50;;;;;;5068540;28;20111;-53
2021/07/14 08:52:08;;;;;;;1.63;1.13;;;23.50;57.60;;;;;;5060195;28;20040;-53
2021/07/14 08:54:37;;;;;;;1.55;0.98;;;23.50;58.00;;;;;;5066268;28;20039;-55
2021/07/14 08:57:03;;;;;;;1.85;0.90;;;23.50;58.10;;;;;;5054788;28;20029;-54
2021/07/14 08:59:29;;;;;;;1.52;0.90;;;23.50;57.40;;;;;;5063568;28;20090;-55
2021/07/14 09:01:55;;;;;;;1.58;1.02;;;23.60;57.50;;;;;;5053200;28;20036;-55
2021/07/14 09:04:20;;;;;;;1.70;0.98;;;23.60;57.50;;;;;;5058986;28;20112;-57
2021/07/14 09:06:46;;;;;;;1.70;0.93;;;23.60;57.50;;;;;;5070733;28;20025;-55
2021/07/14 09:09:12;;;;;;;2.28;1.00;;;23.50;57.50;;;;;;5061683;28;20025;-57
2021/07/14 09:11:48;;;;;;;1.42;1.00;;;23.60;57.50;;;;;;5062640;28;20098;-56
2021/07/14 09:14:33;;;;;;;3.05;1.30;;;23.60;57.50;;;;;;5054892;28;20037;-53
2021/07/14 09:17:01;;;;;;;1.63;1.10;;;23.60;57.40;;;;;;5051652;28;20072;-55
2021/07/14 09:19:30;;;;;;;1.73;0.80;;;23.60;57.50;;;;;;5058656;28;20377;-57
2021/07/14 09:21:58;;;;;;;1.10;0.93;;;23.70;57.60;;;;;;5069393;28;20090;-53
2021/07/14 09:24:32;;;;;;;2.13;1.00;;;23.70;57.50;;;;;;5064907;28;20111;-56
2021/07/14 09:27:02;;;;;;;2.97;0.90;;;23.70;57.50;;;;;;5059652;28;20075;-51
2021/07/14 09:29:29;;;;;;;3.15;1.10;;;23.70;57.50;;;;;;5061407;28;20032;-57
2021/07/14 09:31:55;;;;;;;3.22;1.13;;;23.70;57.50;;;;;;5047079;28;20048;-54
2021/07/14 09:34:32;;;;;;;2.20;1.17;;;23.70;57.50;;;;;;5052057;28;20359;-50
2021/07/14 09:37:03;;;;;;;1.35;1.00;;;23.80;57.60;;;;;;5066382;28;20036;-53
2021/07/14 09:39:36;;;;;;;3.40;1.08;;;23.70;57.50;;;;;;5083621;28;20020;-55
2021/07/14 09:42:12;;;;;;;3.20;1.15;;;23.70;57.50;;;;;;5057914;28;20102;-54
2021/07/14 09:44:48;;;;;;;3.47;1.30;;;23.70;57.60;;;;;;5051097;28;20048;-53
2021/07/14 09:47:20;;;;;;;1.58;1.00;;;23.70;57.60;;;;;;5058774;28;20047;-53
2021/07/14 09:49:46;;;;;;;;;;;23.70;57.60;;;;;;5071564;28;20044;-54
2021/07/14 09:52:18;;;;;;;0.90;0.77;;;23.70;57.50;;;;;;5071989;28;20445;-53
2021/07/14 09:54:44;;;;;;;4.35;1.42;;;23.80;57.60;;;;;;5071121;28;20470;-51
2021/07/14 09:57:12;;;;;;;1.52;1.05;;;23.70;57.50;;;;;;5062512;28;20043;-52
2021/07/14 09:59:38;;;;;;;2.40;1.20;;;23.70;57.50;;;;;;5067274;28;20045;-55
2021/07/14 10:02:04;;;;;;;2.95;1.13;;;23.70;57.50;;;;;;5071721;28;20094;-51
2021/07/14 10:04:33;;;;;;;3.40;0.85;;;23.70;57.50;;;;;;5070701;28;20025;-54
2021/07/14 10:07:10;;;;;;;1.10;1.00;;;23.70;57.50;;;;;;5071559;28;20021;-53
2021/07/14 10:09:37;;;;;;;1.95;1.20;;;23.70;57.50;;;;;;5070993;28;20032;-49
2021/07/14 10:12:35;;;;;;;1.38;1.05;;;23.70;57.40;;;;;;5070637;28;20028;-53
2021/07/14 10:15:15;;;;;;;1.30;1.00;;;23.70;57.40;;;;;;5071557;28;20155;-54
2021/07/14 10:17:42;;;;;;;2.83;1.92;;;23.70;57.30;;;;;;5070055;28;20032;-51
2021/07/14 10:20:29;;;;;;;1.83;1.35;;;23.80;57.50;;;;;;5070649;28;20496;-55
2021/07/14 10:23:04;;;;;;;2.42;1.00;;;23.80;57.40;;;;;;5068098;28;20063;-55
2021/07/14 10:25:32;;;;;;;3.72;1.25;;;23.80;57.40;;;;;;5074734;28;20101;-54
2021/07/14 10:27:59;;;;;;;2.42;1.13;;;23.80;57.40;;;;;;5075634;28;20025;-52
2021/07/14 10:30:26;;;;;;;0.98;0.88;;;23.80;57.30;;;;;;5075559;28;20025;-53
2021/07/14 10:32:53;;;;;;;1.75;0.88;;;23.80;57.30;;;;;;5075690;28;20146;-55
2021/07/14 10:35:21;;;;;;;1.60;1.25;;;23.80;57.30;;;;;;5071464;28;20036;-53
2021/07/14 10:37:57;;;;;;;2.95;1.05;;;23.70;57.20;;;;;;5064798;28;20033;-53
2021/07/14 10:40:24;;;;;;;1.75;1.20;;;23.70;57.10;;;;;;5064485;28;20615;-54
2021/07/14 10:42:52;;;;;;;1.33;1.13;;;23.70;57.10;;;;;;5070059;28;20037;-54
2021/07/14 10:45:19;;;;;;;0.90;0.90;;;23.70;56.90;;;;;;5074630;28;20028;-57
2021/07/14 10:47:46;;;;;;;2.38;1.00;;;23.70;57.00;;;;;;5074126;28;20036;-54
2021/07/14 10:50:13;;;;;;;2.38;0.90;;;23.80;57.10;;;;;;5075065;28;20025;-54
2021/07/14 10:52:40;;;;;;;1.67;1.20;;;23.80;56.90;;;;;;5072885;28;20056;-55
2021/07/14 10:55:12;;;;;;;1.13;0.95;;;23.80;56.80;;;;;;5063197;28;20090;-52
2021/07/14 10:57:39;;;;;;;2.35;1.38;;;23.70;56.60;;;;;;5074269;28;20060;-55
2021/07/14 11:00:09;;;;;;;1.83;1.10;;;23.70;56.70;;;;;;5074484;28;20044;-50
2021/07/14 11:02:49;;;;;;;1.75;1.10;;;23.70;56.80;;;;;;5073679;28;20120;-52
2021/07/14 11:05:30;;;;;;;1.77;1.27;;;23.70;56.80;;;;;;5056590;28;20116;-54
2021/07/14 11:07:57;;;;;;;1.88;0.90;;;23.80;56.70;;;;;;5074733;28;20032;-52
2021/07/14 11:10:31;;;;;;;2.85;1.17;;;23.80;56.40;;;;;;5071299;28;20173;-51
2021/07/14 11:13:27;;;;;;;1.10;1.00;;;23.80;56.40;;;;;;5054287;28;20075;-54
2021/07/14 11:15:52;;;;;;;1.48;1.00;;;23.80;56.50;;;;;;5053656;28;20045;-53
2021/07/14 11:18:30;;;;;;;1.58;1.30;;;23.70;56.30;;;;;;5060477;28;20362;-52
2021/07/14 11:20:57;;;;;;;1.10;1.00;;;23.70;56.30;;;;;;5071130;28;20032;-55
2021/07/14 11:23:25;;;;;;;1.00;0.80;;;23.80;56.40;;;;;;5069928;28;20032;-54
2021/07/14 11:26:02;;;;;;;1.95;0.80;;;23.80;56.40;;;;;;5063676;28;20652;-54
2021/07/14 11:28:30;;;;;;;2.20;1.00;;;23.80;56.40;;;;;;5074311;28;20033;-54
2021/07/14 11:31:08;;;;;;;1.80;1.15;;;23.80;56.30;;;;;;5072331;28;20048;-54
2021/07/14 11:33:37;;;;;;;1.17;0.98;;;23.80;56.20;;;;;;5060184;28;20037;-56
2021/07/14 11:36:10;;;;;;;2.22;1.02;;;23.80;56.20;;;;;;5063871;28;20029;-53
2021/07/14 11:38:48;;;;;;;1.40;1.00;;;23.80;56.20;;;;;;5060736;28;20056;-56
2021/07/14 11:41:26;;;;;;;1.33;0.90;;;23.80;56.00;;;;;;5061012;28;20056;-54
2021/07/14 11:43:55;;;;;;;3.55;1.15;;;23.90;56.00;;;;;;5063116;28;20066;-55
2021/07/14 11:46:27;;;;;;;1.33;0.90;;;23.90;56.00;;;;;;5072399;28;20039;-57
2021/07/14 11:49:05;;;;;;;1.10;1.00;;;23.90;56.10;;;;;;5063129;28;20029;-53
2021/07/14 11:51:36;;;;;;;1.25;0.85;;;23.90;56.10;;;;;;5064413;28;20034;-56
2021/07/14 11:54:23;;;;;;;1.33;0.83;;;23.90;55.50;;;;;;5071222;28;20075;-54
2021/07/14 11:56:51;;;;;;;1.33;0.82;;;23.90;55.50;;;;;;5067233;28;20275;-55
2021/07/14 11:59:27;;;;;;;1.98;0.90;;;23.90;55.70;;;;;;5064385;28;20025;-54
2021/07/14 12:02:03;;;;;;;2.15;0.90;;;23.90;55.30;;;;;;5061182;28;20111;-54
2021/07/14 12:04:30;;;;;;;1.10;0.70;;;23.90;55.20;;;;;;5066031;28;20025;-55
2021/07/14 12:07:03;;;;;;;0.95;0.80;;;23.90;55.00;;;;;;5059852;28;20052;-54
2021/07/14 12:09:32;;;;;;;0.80;0.70;;;23.90;55.20;;;;;;5058581;28;20024;-55
2021/07/14 12:12:08;;;;;;;1.10;0.80;;;23.90;55.20;;;;;;5066057;28;20056;-55
2021/07/14 12:14:39;;;;;;;2.80;0.80;;;23.90;55.30;;;;;;5061068;28;20432;-57
2021/07/14 12:17:09;;;;;;;1.98;0.80;;;24.00;55.10;;;;;;5065820;28;20055;-55
2021/07/14 12:19:43;;;;;;;1.13;0.70;;;23.90;54.70;;;;;;5060108;28;20082;-56
2021/07/14 12:22:17;;;;;;;2.38;0.95;;;23.90;54.70;;;;;;5058147;28;20090;-55
2021/07/14 12:24:45;;;;;;;1.00;0.90;;;23.90;54.80;;;;;;5065200;28;20056;-55
2021/07/14 12:27:12;;;;;;;0.60;0.60;;;23.90;54.90;;;;;;5067159;28;20039;-54
2021/07/14 12:29:39;;;;;;;0.80;0.80;;;23.90;54.80;;;;;;5068998;28;20025;-53
2021/07/14 12:32:06;;;;;;;0.77;0.73;;;23.90;55.30;;;;;;5068057;28;20040;-54
2021/07/14 12:34:34;;;;;;;2.17;1.20;;;23.90;54.60;;;;;;5061029;28;20053;-56
2021/07/14 12:37:01;;;;;;;0.85;0.70;;;23.90;55.10;;;;;;5054021;28;20079;-52
2021/07/14 12:39:35;;;;;;;2.63;0.70;;;23.90;54.40;;;;;;5070663;28;20427;-53
2021/07/14 12:42:05;;;;;;;1.17;0.80;;;23.90;54.40;;;;;;5059806;28;20064;-58
2021/07/14 12:44:32;;;;;;;1.15;0.70;;;24.00;54.50;;;;;;5066737;28;20477;-58
2021/07/14 12:47:19;;;;;;;2.20;0.80;;;24.00;54.50;;;;;;5062061;28;20128;-50
2021/07/14 12:49:46;;;;;;;1.23;1.00;;;23.90;54.50;;;;;;5069543;28;20059;-52
2021/07/14 12:52:17;;;;;;;0.73;0.70;;;23.90;54.40;;;;;;5070583;28;20032;-52
2021/07/14 12:54:46;;;;;;;2.05;0.60;;;24.00;54.70;;;;;;5055584;28;20123;-52
2021/07/14 12:57:27;;;;;;;1.10;0.80;;;24.00;54.60;;;;;;5069935;28;20067;-57
2021/07/14 12:59:57;;;;;;;;;;;24.00;54.50;;;;;;5060799;28;20055;-54
2021/07/14 13:02:29;;;;;;;0.98;0.70;;;24.00;54.80;;;;;;5054771;28;19908;-53
2021/07/14 13:05:00;;;;;;;1.52;0.68;;;24.00;54.70;;;;;;5068509;28;20094;-55
2021/07/14 13:07:31;;;;;;;2.03;0.77;;;24.00;54.50;;;;;;5052721;28;20036;-53